sensor_id;sensor_type;location;lat;lon;timestamp;P1;durP1;ratioP1;P2;durP2;ratioP2
15706;SDS011;7953;54.302;10.128;2023-08-08T00:02:23;7.70;;;2.83;;
15706;SDS011;7953;54.302;10.128;2023-08-08T00:04:50;9.00;;;2.57;;
15706;SDS011;7953;54.302;10.128;2023-08-08T00:07:17;13.83;;;3.30;;
15706;SDS011;7953;54.302;10.128;2023-08-08T00:09:44;8.53;;;2.80;;
15706;SDS011;7953;54.302;10.128;2023-08-08T00:12:12;10.60;;;2.97;;
15706;SDS011;7953;54.302;10.128;2023-08-08T00:14:39;8.03;;;2.83;;
15706;SDS011;7953;54.302;10.128;2023-08-08T00:17:06;15.37;;;3.63;;
15706;SDS011;7953;54.302;10.128;2023-08-08T00:19:33;12.13;;;3.80;;
15706;SDS011;7953;54.302;10.128;2023-08-08T00:22:00;9.20;;;2.90;;
15706;SDS011;7953;54.302;10.128;2023-08-08T00:24:27;12.37;;;3.87;;
15706;SDS011;7953;54.302;10.128;2023-08-08T00:26:54;12.93;;;3.70;;
15706;SDS011;7953;54.302;10.128;2023-08-08T00:29:22;12.97;;;3.67;;
15706;SDS011;7953;54.302;10.128;2023-08-08T00:31:49;8.77;;;3.37;;
15706;SDS011;7953;54.302;10.128;2023-08-08T00:34:15;10.90;;;3.10;;
15706;SDS011;7953;54.302;10.128;2023-08-08T00:36:42;10.63;;;3.63;;
15706;SDS011;7953;54.302;10.128;2023-08-08T00:39:09;10.30;;;3.20;;
15706;SDS011;7953;54.302;10.128;2023-08-08T00:41:36;10.23;;;3.03;;
15706;SDS011;7953;54.302;10.128;2023-08-08T00:44:03;11.73;;;4.30;;
15706;SDS011;7953;54.302;10.128;2023-08-08T00:46:31;15.73;;;3.60;;
15706;SDS011;7953;54.302;10.128;2023-08-08T00:48:58;11.00;;;3.37;;
15706;SDS011;7953;54.302;10.128;2023-08-08T00:51:25;12.70;;;3.20;;
15706;SDS011;7953;54.302;10.128;2023-08-08T00:53:52;8.80;;;2.73;;
15706;SDS011;7953;54.302;10.128;2023-08-08T00:56:20;9.63;;;3.27;;
15706;SDS011;7953;54.302;10.128;2023-08-08T00:58:47;15.57;;;3.67;;
15706;SDS011;7953;54.302;10.128;2023-08-08T01:01:15;9.20;;;3.10;;
15706;SDS011;7953;54.302;10.128;2023-08-08T01:03:44;14.23;;;3.07;;
15706;SDS011;7953;54.302;10.128;2023-08-08T01:06:13;8.63;;;2.60;;
15706;SDS011;7953;54.302;10.128;2023-08-08T01:08:55;16.83;;;3.37;;
15706;SDS011;7953;54.302;10.128;2023-08-08T01:11:27;9.00;;;2.70;;
15706;SDS011;7953;54.302;10.128;2023-08-08T01:13:55;12.63;;;3.43;;
15706;SDS011;7953;54.302;10.128;2023-08-08T01:16:22;11.03;;;3.13;;
15706;SDS011;7953;54.302;10.128;2023-08-08T01:18:53;16.30;;;3.67;;
15706;SDS011;7953;54.302;10.128;2023-08-08T01:21:22;13.27;;;3.30;;
15706;SDS011;7953;54.302;10.128;2023-08-08T01:23:52;7.93;;;2.83;;
15706;SDS011;7953;54.302;10.128;2023-08-08T01:26:23;9.03;;;2.70;;
15706;SDS011;7953;54.302;10.128;2023-08-08T01:28:52;7.07;;;2.90;;
15706;SDS011;7953;54.302;10.128;2023-08-08T01:31:20;8.53;;;2.77;;
15706;SDS011;7953;54.302;10.128;2023-08-08T01:33:47;10.30;;;2.40;;
15706;SDS011;7953;54.302;10.128;2023-08-08T01:36:22;9.03;;;2.50;;
15706;SDS011;7953;54.302;10.128;2023-08-08T01:38:54;9.87;;;3.13;;
15706;SDS011;7953;54.302;10.128;2023-08-08T01:41:30;8.53;;;3.13;;
15706;SDS011;7953;54.302;10.128;2023-08-08T01:43:59;8.83;;;2.83;;
15706;SDS011;7953;54.302;10.128;2023-08-08T01:46:26;9.80;;;2.53;;
15706;SDS011;7953;54.302;10.128;2023-08-08T01:48:54;16.27;;;3.80;;
15706;SDS011;7953;54.302;10.128;2023-08-08T01:51:20;6.83;;;3.00;;
15706;SDS011;7953;54.302;10.128;2023-08-08T01:53:49;8.87;;;3.00;;
15706;SDS011;7953;54.302;10.128;2023-08-08T01:56:16;9.13;;;2.60;;
15706;SDS011;7953;54.302;10.128;2023-08-08T01:58:44;9.90;;;3.03;;
15706;SDS011;7953;54.302;10.128;2023-08-08T02:01:11;11.23;;;3.50;;
15706;SDS011;7953;54.302;10.128;2023-08-08T02:03:38;11.50;;;3.20;;
15706;SDS011;7953;54.302;10.128;2023-08-08T02:06:04;11.97;;;3.27;;
15706;SDS011;7953;54.302;10.128;2023-08-08T02:08:31;9.23;;;2.93;;
15706;SDS011;7953;54.302;10.128;2023-08-08T02:10:58;8.27;;;3.30;;
15706;SDS011;7953;54.302;10.128;2023-08-08T02:13:25;8.47;;;2.73;;
15706;SDS011;7953;54.302;10.128;2023-08-08T02:15:53;10.40;;;2.83;;
15706;SDS011;7953;54.302;10.128;2023-08-08T02:18:20;10.50;;;3.13;;
15706;SDS011;7953;54.302;10.128;2023-08-08T02:20:47;10.53;;;3.00;;
15706;SDS011;7953;54.302;10.128;2023-08-08T02:23:14;5.43;;;2.20;;
15706;SDS011;7953;54.302;10.128;2023-08-08T02:25:41;8.37;;;2.70;;
15706;SDS011;7953;54.302;10.128;2023-08-08T02:28:07;10.43;;;2.93;;
15706;SDS011;7953;54.302;10.128;2023-08-08T02:30:34;8.30;;;2.30;;
15706;SDS011;7953;54.302;10.128;2023-08-08T02:33:03;8.00;;;2.53;;
15706;SDS011;7953;54.302;10.128;2023-08-08T02:35:30;12.93;;;2.90;;
15706;SDS011;7953;54.302;10.128;2023-08-08T02:37:57;12.70;;;3.27;;
15706;SDS011;7953;54.302;10.128;2023-08-08T02:40:23;8.00;;;2.60;;
15706;SDS011;7953;54.302;10.128;2023-08-08T02:42:52;12.73;;;3.00;;
15706;SDS011;7953;54.302;10.128;2023-08-08T02:45:18;7.87;;;2.63;;
15706;SDS011;7953;54.302;10.128;2023-08-08T02:47:45;10.83;;;3.33;;
15706;SDS011;7953;54.302;10.128;2023-08-08T02:50:13;10.93;;;3.00;;
15706;SDS011;7953;54.302;10.128;2023-08-08T02:52:40;11.73;;;3.13;;
15706;SDS011;7953;54.302;10.128;2023-08-08T02:55:08;9.07;;;2.93;;
15706;SDS011;7953;54.302;10.128;2023-08-08T02:57:35;7.23;;;3.30;;
15706;SDS011;7953;54.302;10.128;2023-08-08T03:00:02;7.17;;;2.30;;
15706;SDS011;7953;54.302;10.128;2023-08-08T03:02:30;4.87;;;2.40;;
15706;SDS011;7953;54.302;10.128;2023-08-08T03:04:57;10.63;;;2.93;;
15706;SDS011;7953;54.302;10.128;2023-08-08T03:07:25;7.70;;;2.80;;
15706;SDS011;7953;54.302;10.128;2023-08-08T03:09:52;8.30;;;2.87;;
15706;SDS011;7953;54.302;10.128;2023-08-08T03:12:19;8.10;;;2.57;;
15706;SDS011;7953;54.302;10.128;2023-08-08T03:14:46;18.97;;;3.13;;
15706;SDS011;7953;54.302;10.128;2023-08-08T03:17:13;8.83;;;2.23;;
15706;SDS011;7953;54.302;10.128;2023-08-08T03:19:40;8.47;;;2.37;;
15706;SDS011;7953;54.302;10.128;2023-08-08T03:22:06;8.83;;;2.03;;
15706;SDS011;7953;54.302;10.128;2023-08-08T03:24:35;8.67;;;2.70;;
15706;SDS011;7953;54.302;10.128;2023-08-08T03:27:02;7.70;;;2.83;;
15706;SDS011;7953;54.302;10.128;2023-08-08T03:29:29;5.97;;;2.20;;
15706;SDS011;7953;54.302;10.128;2023-08-08T03:31:56;9.90;;;2.70;;
15706;SDS011;7953;54.302;10.128;2023-08-08T03:34:23;7.57;;;3.07;;
15706;SDS011;7953;54.302;10.128;2023-08-08T03:36:49;8.47;;;2.53;;
15706;SDS011;7953;54.302;10.128;2023-08-08T03:39:16;7.90;;;2.10;;
15706;SDS011;7953;54.302;10.128;2023-08-08T03:41:44;7.07;;;2.70;;
15706;SDS011;7953;54.302;10.128;2023-08-08T03:44:12;9.57;;;2.53;;
15706;SDS011;7953;54.302;10.128;2023-08-08T03:46:38;4.93;;;2.47;;
15706;SDS011;7953;54.302;10.128;2023-08-08T03:49:05;8.60;;;2.80;;
15706;SDS011;7953;54.302;10.128;2023-08-08T03:51:33;7.37;;;2.30;;
15706;SDS011;7953;54.302;10.128;2023-08-08T03:54:00;4.27;;;1.93;;
15706;SDS011;7953;54.302;10.128;2023-08-08T03:56:27;6.97;;;2.33;;
15706;SDS011;7953;54.302;10.128;2023-08-08T03:58:55;11.10;;;2.07;;
15706;SDS011;7953;54.302;10.128;2023-08-08T04:01:23;8.40;;;2.60;;
15706;SDS011;7953;54.302;10.128;2023-08-08T04:03:50;10.70;;;2.70;;
15706;SDS011;7953;54.302;10.128;2023-08-08T04:06:17;5.80;;;1.90;;
15706;SDS011;7953;54.302;10.128;2023-08-08T04:08:44;9.30;;;2.47;;
15706;SDS011;7953;54.302;10.128;2023-08-08T04:11:11;4.57;;;1.87;;
15706;SDS011;7953;54.302;10.128;2023-08-08T04:13:37;8.83;;;2.27;;
15706;SDS011;7953;54.302;10.128;2023-08-08T04:16:06;6.50;;;2.30;;
15706;SDS011;7953;54.302;10.128;2023-08-08T04:18:32;8.33;;;2.53;;
15706;SDS011;7953;54.302;10.128;2023-08-08T04:20:59;8.17;;;2.40;;
15706;SDS011;7953;54.302;10.128;2023-08-08T04:23:26;7.33;;;2.23;;
15706;SDS011;7953;54.302;10.128;2023-08-08T04:25:53;6.70;;;2.03;;
15706;SDS011;7953;54.302;10.128;2023-08-08T04:28:20;12.00;;;2.90;;
15706;SDS011;7953;54.302;10.128;2023-08-08T04:30:47;10.97;;;2.20;;
15706;SDS011;7953;54.302;10.128;2023-08-08T04:33:15;7.27;;;2.70;;
15706;SDS011;7953;54.302;10.128;2023-08-08T04:35:42;10.77;;;3.17;;
15706;SDS011;7953;54.302;10.128;2023-08-08T04:38:09;10.13;;;2.73;;
15706;SDS011;7953;54.302;10.128;2023-08-08T04:40:36;6.47;;;2.30;;
15706;SDS011;7953;54.302;10.128;2023-08-08T04:43:03;6.77;;;2.20;;
15706;SDS011;7953;54.302;10.128;2023-08-08T04:45:30;10.47;;;3.20;;
15706;SDS011;7953;54.302;10.128;2023-08-08T04:47:56;8.30;;;2.70;;
15706;SDS011;7953;54.302;10.128;2023-08-08T04:50:25;8.57;;;2.90;;
15706;SDS011;7953;54.302;10.128;2023-08-08T04:52:53;8.20;;;2.63;;
15706;SDS011;7953;54.302;10.128;2023-08-08T04:55:20;9.53;;;2.23;;
15706;SDS011;7953;54.302;10.128;2023-08-08T04:57:47;7.87;;;2.60;;
15706;SDS011;7953;54.302;10.128;2023-08-08T05:00:14;4.90;;;2.13;;
15706;SDS011;7953;54.302;10.128;2023-08-08T05:02:41;6.23;;;2.60;;
15706;SDS011;7953;54.302;10.128;2023-08-08T05:05:08;6.80;;;2.50;;
15706;SDS011;7953;54.302;10.128;2023-08-08T05:07:36;11.53;;;2.37;;
15706;SDS011;7953;54.302;10.128;2023-08-08T05:10:04;7.93;;;2.90;;
15706;SDS011;7953;54.302;10.128;2023-08-08T05:12:31;10.33;;;2.70;;
15706;SDS011;7953;54.302;10.128;2023-08-08T05:14:58;9.03;;;2.53;;
15706;SDS011;7953;54.302;10.128;2023-08-08T05:17:25;6.53;;;2.47;;
15706;SDS011;7953;54.302;10.128;2023-08-08T05:19:52;9.63;;;2.80;;
15706;SDS011;7953;54.302;10.128;2023-08-08T05:22:19;10.13;;;2.40;;
15706;SDS011;7953;54.302;10.128;2023-08-08T05:24:47;8.13;;;2.47;;
15706;SDS011;7953;54.302;10.128;2023-08-08T05:27:14;6.90;;;2.27;;
15706;SDS011;7953;54.302;10.128;2023-08-08T05:29:41;3.57;;;1.87;;
15706;SDS011;7953;54.302;10.128;2023-08-08T05:32:07;6.80;;;2.23;;
15706;SDS011;7953;54.302;10.128;2023-08-08T05:34:34;7.77;;;2.60;;
15706;SDS011;7953;54.302;10.128;2023-08-08T05:37:01;8.33;;;2.00;;
15706;SDS011;7953;54.302;10.128;2023-08-08T05:39:29;7.97;;;2.07;;
15706;SDS011;7953;54.302;10.128;2023-08-08T05:41:57;5.67;;;2.07;;
15706;SDS011;7953;54.302;10.128;2023-08-08T05:44:24;11.90;;;2.13;;
15706;SDS011;7953;54.302;10.128;2023-08-08T05:46:51;7.93;;;2.10;;
15706;SDS011;7953;54.302;10.128;2023-08-08T05:49:18;7.47;;;1.87;;
15706;SDS011;7953;54.302;10.128;2023-08-08T05:51:45;6.27;;;1.70;;
15706;SDS011;7953;54.302;10.128;2023-08-08T05:54:12;2.37;;;1.80;;
15706;SDS011;7953;54.302;10.128;2023-08-08T05:56:39;3.93;;;1.93;;
15706;SDS011;7953;54.302;10.128;2023-08-08T05:59:07;9.73;;;1.97;;
15706;SDS011;7953;54.302;10.128;2023-08-08T06:01:34;5.10;;;1.87;;
15706;SDS011;7953;54.302;10.128;2023-08-08T06:04:01;6.33;;;1.67;;
15706;SDS011;7953;54.302;10.128;2023-08-08T06:06:28;5.17;;;1.80;;
15706;SDS011;7953;54.302;10.128;2023-08-08T06:08:55;6.00;;;1.80;;
15706;SDS011;7953;54.302;10.128;2023-08-08T06:11:22;4.20;;;1.80;;
15706;SDS011;7953;54.302;10.128;2023-08-08T06:13:49;5.63;;;1.80;;
15706;SDS011;7953;54.302;10.128;2023-08-08T06:16:17;5.00;;;2.40;;
15706;SDS011;7953;54.302;10.128;2023-08-08T06:18:45;7.87;;;2.37;;
15706;SDS011;7953;54.302;10.128;2023-08-08T06:21:12;6.70;;;2.33;;
15706;SDS011;7953;54.302;10.128;2023-08-08T06:23:39;9.77;;;2.10;;
15706;SDS011;7953;54.302;10.128;2023-08-08T06:26:06;5.43;;;2.30;;
15706;SDS011;7953;54.302;10.128;2023-08-08T06:28:33;9.07;;;2.50;;
15706;SDS011;7953;54.302;10.128;2023-08-08T06:30:59;7.37;;;2.40;;
15706;SDS011;7953;54.302;10.128;2023-08-08T06:33:28;6.47;;;2.10;;
15706;SDS011;7953;54.302;10.128;2023-08-08T06:35:55;5.00;;;2.50;;
15706;SDS011;7953;54.302;10.128;2023-08-08T06:38:22;8.93;;;2.27;;
15706;SDS011;7953;54.302;10.128;2023-08-08T06:40:49;7.23;;;3.07;;
15706;SDS011;7953;54.302;10.128;2023-08-08T06:43:16;5.37;;;2.20;;
15706;SDS011;7953;54.302;10.128;2023-08-08T06:45:43;7.13;;;2.10;;
15706;SDS011;7953;54.302;10.128;2023-08-08T06:48:10;8.00;;;2.40;;
15706;SDS011;7953;54.302;10.128;2023-08-08T06:50:38;3.87;;;1.93;;
15706;SDS011;7953;54.302;10.128;2023-08-08T06:53:05;6.73;;;2.00;;
15706;SDS011;7953;54.302;10.128;2023-08-08T06:55:32;4.23;;;2.13;;
15706;SDS011;7953;54.302;10.128;2023-08-08T06:57:59;4.43;;;2.17;;
15706;SDS011;7953;54.302;10.128;2023-08-08T07:00:26;4.90;;;2.07;;
15706;SDS011;7953;54.302;10.128;2023-08-08T07:02:53;5.43;;;1.90;;
15706;SDS011;7953;54.302;10.128;2023-08-08T07:05:20;6.13;;;1.80;;
15706;SDS011;7953;54.302;10.128;2023-08-08T07:07:50;8.30;;;2.43;;
15706;SDS011;7953;54.302;10.128;2023-08-08T07:10:17;9.33;;;2.27;;
15706;SDS011;7953;54.302;10.128;2023-08-08T07:12:44;6.43;;;2.37;;
15706;SDS011;7953;54.302;10.128;2023-08-08T07:15:11;6.93;;;2.13;;
15706;SDS011;7953;54.302;10.128;2023-08-08T07:17:39;7.70;;;2.60;;
15706;SDS011;7953;54.302;10.128;2023-08-08T07:20:06;12.93;;;2.70;;
15706;SDS011;7953;54.302;10.128;2023-08-08T07:22:33;9.77;;;3.33;;
15706;SDS011;7953;54.302;10.128;2023-08-08T07:25:05;7.87;;;2.90;;
15706;SDS011;7953;54.302;10.128;2023-08-08T07:27:32;7.47;;;3.10;;
15706;SDS011;7953;54.302;10.128;2023-08-08T07:29:59;10.70;;;2.60;;
15706;SDS011;7953;54.302;10.128;2023-08-08T07:32:27;10.03;;;3.20;;
15706;SDS011;7953;54.302;10.128;2023-08-08T07:34:54;8.70;;;2.87;;
15706;SDS011;7953;54.302;10.128;2023-08-08T07:37:21;8.30;;;2.73;;
15706;SDS011;7953;54.302;10.128;2023-08-08T07:39:50;8.53;;;2.37;;
15706;SDS011;7953;54.302;10.128;2023-08-08T07:42:18;8.60;;;2.50;;
15706;SDS011;7953;54.302;10.128;2023-08-08T07:44:45;6.07;;;2.77;;
15706;SDS011;7953;54.302;10.128;2023-08-08T07:47:12;11.50;;;3.07;;
15706;SDS011;7953;54.302;10.128;2023-08-08T07:49:39;8.87;;;2.70;;
15706;SDS011;7953;54.302;10.128;2023-08-08T07:52:06;8.23;;;2.87;;
15706;SDS011;7953;54.302;10.128;2023-08-08T07:54:33;8.60;;;3.03;;
15706;SDS011;7953;54.302;10.128;2023-08-08T07:57:00;5.87;;;2.40;;
15706;SDS011;7953;54.302;10.128;2023-08-08T07:59:28;7.50;;;2.93;;
15706;SDS011;7953;54.302;10.128;2023-08-08T08:01:55;7.17;;;3.27;;
15706;SDS011;7953;54.302;10.128;2023-08-08T08:04:22;6.10;;;2.83;;
15706;SDS011;7953;54.302;10.128;2023-08-08T08:06:49;10.20;;;2.60;;
15706;SDS011;7953;54.302;10.128;2023-08-08T08:09:16;6.27;;;2.50;;
15706;SDS011;7953;54.302;10.128;2023-08-08T08:11:43;7.10;;;2.43;;
15706;SDS011;7953;54.302;10.128;2023-08-08T08:14:09;7.67;;;2.37;;
15706;SDS011;7953;54.302;10.128;2023-08-08T08:16:38;6.80;;;2.30;;
15706;SDS011;7953;54.302;10.128;2023-08-08T08:19:05;9.30;;;2.20;;
15706;SDS011;7953;54.302;10.128;2023-08-08T08:21:32;8.23;;;2.47;;
15706;SDS011;7953;54.302;10.128;2023-08-08T08:23:59;8.60;;;2.60;;
15706;SDS011;7953;54.302;10.128;2023-08-08T08:26:26;7.47;;;2.30;;
15706;SDS011;7953;54.302;10.128;2023-08-08T08:28:53;5.77;;;2.23;;
15706;SDS011;7953;54.302;10.128;2023-08-08T08:31:20;7.87;;;2.67;;
15706;SDS011;7953;54.302;10.128;2023-08-08T08:33:48;8.93;;;2.80;;
15706;SDS011;7953;54.302;10.128;2023-08-08T08:36:15;8.93;;;3.07;;
15706;SDS011;7953;54.302;10.128;2023-08-08T08:38:42;6.33;;;2.87;;
15706;SDS011;7953;54.302;10.128;2023-08-08T08:41:09;5.63;;;2.70;;
15706;SDS011;7953;54.302;10.128;2023-08-08T08:43:40;7.90;;;2.23;;
15706;SDS011;7953;54.302;10.128;2023-08-08T08:46:07;6.83;;;1.90;;
15706;SDS011;7953;54.302;10.128;2023-08-08T08:48:37;7.00;;;2.43;;
15706;SDS011;7953;54.302;10.128;2023-08-08T08:51:05;4.97;;;1.60;;
15706;SDS011;7953;54.302;10.128;2023-08-08T08:53:32;5.87;;;2.10;;
15706;SDS011;7953;54.302;10.128;2023-08-08T08:56:03;6.63;;;2.00;;
15706;SDS011;7953;54.302;10.128;2023-08-08T08:58:30;6.33;;;2.10;;
15706;SDS011;7953;54.302;10.128;2023-08-08T09:00:57;7.47;;;2.00;;
15706;SDS011;7953;54.302;10.128;2023-08-08T09:03:24;5.03;;;1.83;;
15706;SDS011;7953;54.302;10.128;2023-08-08T09:05:52;4.23;;;1.63;;
15706;SDS011;7953;54.302;10.128;2023-08-08T09:08:21;4.93;;;2.07;;
15706;SDS011;7953;54.302;10.128;2023-08-08T09:10:48;7.60;;;1.60;;
15706;SDS011;7953;54.302;10.128;2023-08-08T09:13:16;8.20;;;2.27;;
15706;SDS011;7953;54.302;10.128;2023-08-08T09:15:46;5.37;;;2.03;;
15706;SDS011;7953;54.302;10.128;2023-08-08T09:18:13;8.73;;;2.03;;
15706;SDS011;7953;54.302;10.128;2023-08-08T09:20:40;10.03;;;1.97;;
15706;SDS011;7953;54.302;10.128;2023-08-08T09:23:08;5.50;;;1.23;;
15706;SDS011;7953;54.302;10.128;2023-08-08T09:25:37;4.07;;;1.90;;
15706;SDS011;7953;54.302;10.128;2023-08-08T09:28:04;2.77;;;1.90;;
15706;SDS011;7953;54.302;10.128;2023-08-08T09:30:31;5.23;;;2.10;;
15706;SDS011;7953;54.302;10.128;2023-08-08T09:32:58;5.17;;;1.37;;
15706;SDS011;7953;54.302;10.128;2023-08-08T09:35:26;8.93;;;1.80;;
15706;SDS011;7953;54.302;10.128;2023-08-08T09:37:55;3.17;;;1.20;;
15706;SDS011;7953;54.302;10.128;2023-08-08T09:40:22;3.20;;;1.50;;
15706;SDS011;7953;54.302;10.128;2023-08-08T09:42:52;4.47;;;1.47;;
15706;SDS011;7953;54.302;10.128;2023-08-08T09:45:19;7.90;;;2.17;;
15706;SDS011;7953;54.302;10.128;2023-08-08T09:47:48;6.80;;;1.70;;
15706;SDS011;7953;54.302;10.128;2023-08-08T09:50:17;5.63;;;1.77;;
15706;SDS011;7953;54.302;10.128;2023-08-08T09:52:45;3.93;;;1.50;;
15706;SDS011;7953;54.302;10.128;2023-08-08T09:55:13;5.97;;;2.03;;
15706;SDS011;7953;54.302;10.128;2023-08-08T09:57:40;9.40;;;2.33;;
15706;SDS011;7953;54.302;10.128;2023-08-08T10:00:09;4.07;;;1.80;;
15706;SDS011;7953;54.302;10.128;2023-08-08T10:02:41;6.33;;;1.43;;
15706;SDS011;7953;54.302;10.128;2023-08-08T10:05:09;5.77;;;1.60;;
15706;SDS011;7953;54.302;10.128;2023-08-08T10:07:38;7.17;;;1.87;;
15706;SDS011;7953;54.302;10.128;2023-08-08T10:10:06;4.83;;;2.00;;
15706;SDS011;7953;54.302;10.128;2023-08-08T10:12:36;7.53;;;1.83;;
15706;SDS011;7953;54.302;10.128;2023-08-08T10:15:04;3.97;;;1.90;;
15706;SDS011;7953;54.302;10.128;2023-08-08T10:17:36;6.33;;;1.80;;
15706;SDS011;7953;54.302;10.128;2023-08-08T10:20:04;3.67;;;1.30;;
15706;SDS011;7953;54.302;10.128;2023-08-08T10:22:36;11.73;;;1.80;;
15706;SDS011;7953;54.302;10.128;2023-08-08T10:25:05;4.27;;;1.30;;
15706;SDS011;7953;54.302;10.128;2023-08-08T10:27:33;3.37;;;1.70;;
15706;SDS011;7953;54.302;10.128;2023-08-08T10:30:02;3.43;;;1.10;;
15706;SDS011;7953;54.302;10.128;2023-08-08T10:32:39;5.40;;;1.20;;
15706;SDS011;7953;54.302;10.128;2023-08-08T10:35:07;5.20;;;1.77;;
15706;SDS011;7953;54.302;10.128;2023-08-08T10:37:35;3.80;;;1.37;;
15706;SDS011;7953;54.302;10.128;2023-08-08T10:40:03;4.47;;;1.57;;
15706;SDS011;7953;54.302;10.128;2023-08-08T10:42:32;3.57;;;1.93;;
15706;SDS011;7953;54.302;10.128;2023-08-08T10:45:08;4.13;;;1.40;;
15706;SDS011;7953;54.302;10.128;2023-08-08T10:47:36;5.20;;;1.57;;
15706;SDS011;7953;54.302;10.128;2023-08-08T10:50:05;5.93;;;1.40;;
15706;SDS011;7953;54.302;10.128;2023-08-08T10:52:37;6.33;;;1.87;;
15706;SDS011;7953;54.302;10.128;2023-08-08T10:55:19;1.63;;;0.93;;
15706;SDS011;7953;54.302;10.128;2023-08-08T10:57:55;2.40;;;1.40;;
15706;SDS011;7953;54.302;10.128;2023-08-08T11:00:24;6.07;;;1.40;;
15706;SDS011;7953;54.302;10.128;2023-08-08T11:02:56;8.23;;;2.03;;
15706;SDS011;7953;54.302;10.128;2023-08-08T11:05:24;5.57;;;1.33;;
15706;SDS011;7953;54.302;10.128;2023-08-08T11:07:51;5.03;;;1.40;;
15706;SDS011;7953;54.302;10.128;2023-08-08T11:10:18;6.87;;;2.07;;
15706;SDS011;7953;54.302;10.128;2023-08-08T11:12:54;3.50;;;1.43;;
15706;SDS011;7953;54.302;10.128;2023-08-08T11:15:23;4.53;;;1.50;;
15706;SDS011;7953;54.302;10.128;2023-08-08T11:17:52;4.67;;;1.40;;
15706;SDS011;7953;54.302;10.128;2023-08-08T11:20:21;3.50;;;1.90;;
15706;SDS011;7953;54.302;10.128;2023-08-08T11:22:52;3.23;;;1.00;;
15706;SDS011;7953;54.302;10.128;2023-08-08T11:25:19;3.40;;;1.10;;
15706;SDS011;7953;54.302;10.128;2023-08-08T11:27:50;5.93;;;1.23;;
15706;SDS011;7953;54.302;10.128;2023-08-08T11:30:17;2.97;;;0.83;;
15706;SDS011;7953;54.302;10.128;2023-08-08T11:32:45;3.73;;;1.10;;
15706;SDS011;7953;54.302;10.128;2023-08-08T11:35:15;6.33;;;1.00;;
15706;SDS011;7953;54.302;10.128;2023-08-08T11:37:45;1.67;;;1.10;;
15706;SDS011;7953;54.302;10.128;2023-08-08T11:40:12;2.20;;;1.13;;
15706;SDS011;7953;54.302;10.128;2023-08-08T11:42:40;9.77;;;1.17;;
15706;SDS011;7953;54.302;10.128;2023-08-08T11:45:08;1.53;;;0.90;;
15706;SDS011;7953;54.302;10.128;2023-08-08T11:47:37;4.67;;;1.50;;
15706;SDS011;7953;54.302;10.128;2023-08-08T11:50:05;6.60;;;1.30;;
15706;SDS011;7953;54.302;10.128;2023-08-08T11:52:33;3.60;;;1.20;;
15706;SDS011;7953;54.302;10.128;2023-08-08T11:55:03;2.87;;;1.30;;
15706;SDS011;7953;54.302;10.128;2023-08-08T11:57:33;6.07;;;1.43;;
15706;SDS011;7953;54.302;10.128;2023-08-08T12:00:02;2.00;;;1.07;;
15706;SDS011;7953;54.302;10.128;2023-08-08T12:02:32;3.67;;;1.10;;
15706;SDS011;7953;54.302;10.128;2023-08-08T12:05:03;1.63;;;0.90;;
15706;SDS011;7953;54.302;10.128;2023-08-08T12:07:31;2.10;;;0.87;;
15706;SDS011;7953;54.302;10.128;2023-08-08T12:09:59;3.10;;;1.10;;
15706;SDS011;7953;54.302;10.128;2023-08-08T12:12:27;3.60;;;0.83;;
15706;SDS011;7953;54.302;10.128;2023-08-08T12:14:56;1.57;;;0.80;;
15706;SDS011;7953;54.302;10.128;2023-08-08T12:17:23;1.77;;;0.83;;
15706;SDS011;7953;54.302;10.128;2023-08-08T12:19:50;1.43;;;1.00;;
15706;SDS011;7953;54.302;10.128;2023-08-08T12:22:17;3.43;;;0.90;;
15706;SDS011;7953;54.302;10.128;2023-08-08T12:24:43;3.30;;;1.00;;
15706;SDS011;7953;54.302;10.128;2023-08-08T12:27:10;1.10;;;0.70;;
15706;SDS011;7953;54.302;10.128;2023-08-08T12:29:38;3.10;;;0.90;;
15706;SDS011;7953;54.302;10.128;2023-08-08T12:32:05;3.33;;;0.60;;
15706;SDS011;7953;54.302;10.128;2023-08-08T12:34:34;1.77;;;0.83;;
15706;SDS011;7953;54.302;10.128;2023-08-08T12:37:00;5.00;;;1.03;;
15706;SDS011;7953;54.302;10.128;2023-08-08T12:39:27;2.97;;;0.90;;
15706;SDS011;7953;54.302;10.128;2023-08-08T12:41:55;3.67;;;0.90;;
15706;SDS011;7953;54.302;10.128;2023-08-08T12:44:22;1.83;;;0.90;;
15706;SDS011;7953;54.302;10.128;2023-08-08T12:46:50;4.60;;;1.50;;
15706;SDS011;7953;54.302;10.128;2023-08-08T12:49:17;2.43;;;0.77;;
15706;SDS011;7953;54.302;10.128;2023-08-08T12:51:44;4.17;;;1.50;;
15706;SDS011;7953;54.302;10.128;2023-08-08T12:54:11;2.97;;;1.40;;
15706;SDS011;7953;54.302;10.128;2023-08-08T12:56:38;4.03;;;1.43;;
15706;SDS011;7953;54.302;10.128;2023-08-08T12:59:05;4.23;;;1.33;;
15706;SDS011;7953;54.302;10.128;2023-08-08T13:01:32;2.70;;;0.97;;
15706;SDS011;7953;54.302;10.128;2023-08-08T13:04:00;5.97;;;1.30;;
15706;SDS011;7953;54.302;10.128;2023-08-08T13:06:28;4.33;;;1.33;;
15706;SDS011;7953;54.302;10.128;2023-08-08T13:08:55;3.93;;;1.27;;
15706;SDS011;7953;54.302;10.128;2023-08-08T13:11:22;5.67;;;1.47;;
15706;SDS011;7953;54.302;10.128;2023-08-08T13:13:50;4.53;;;1.13;;
15706;SDS011;7953;54.302;10.128;2023-08-08T13:16:16;2.87;;;1.10;;
15706;SDS011;7953;54.302;10.128;2023-08-08T13:18:43;1.47;;;0.73;;
15706;SDS011;7953;54.302;10.128;2023-08-08T13:21:11;2.50;;;0.80;;
15706;SDS011;7953;54.302;10.128;2023-08-08T13:23:38;2.13;;;0.97;;
15706;SDS011;7953;54.302;10.128;2023-08-08T13:26:06;2.10;;;0.93;;
15706;SDS011;7953;54.302;10.128;2023-08-08T13:28:32;3.70;;;0.83;;
15706;SDS011;7953;54.302;10.128;2023-08-08T13:30:59;3.00;;;1.07;;
15706;SDS011;7953;54.302;10.128;2023-08-08T13:33:26;3.60;;;1.33;;
15706;SDS011;7953;54.302;10.128;2023-08-08T13:35:53;3.47;;;1.10;;
15706;SDS011;7953;54.302;10.128;2023-08-08T13:38:21;4.57;;;1.47;;
15706;SDS011;7953;54.302;10.128;2023-08-08T13:40:49;2.97;;;1.00;;
15706;SDS011;7953;54.302;10.128;2023-08-08T13:43:16;2.63;;;1.03;;
15706;SDS011;7953;54.302;10.128;2023-08-08T13:45:43;1.43;;;0.87;;
15706;SDS011;7953;54.302;10.128;2023-08-08T13:48:10;5.00;;;1.00;;
15706;SDS011;7953;54.302;10.128;2023-08-08T13:50:37;2.63;;;1.03;;
15706;SDS011;7953;54.302;10.128;2023-08-08T13:53:03;3.13;;;1.40;;
15706;SDS011;7953;54.302;10.128;2023-08-08T13:55:32;2.30;;;0.97;;
15706;SDS011;7953;54.302;10.128;2023-08-08T13:58:04;2.40;;;0.97;;
15706;SDS011;7953;54.302;10.128;2023-08-08T14:00:31;3.17;;;1.10;;
15706;SDS011;7953;54.302;10.128;2023-08-08T14:02:58;2.23;;;1.30;;
15706;SDS011;7953;54.302;10.128;2023-08-08T14:05:25;3.07;;;1.30;;
15706;SDS011;7953;54.302;10.128;2023-08-08T14:07:53;4.10;;;1.27;;
15706;SDS011;7953;54.302;10.128;2023-08-08T14:10:20;4.30;;;1.40;;
15706;SDS011;7953;54.302;10.128;2023-08-08T14:12:48;5.13;;;1.37;;
15706;SDS011;7953;54.302;10.128;2023-08-08T14:15:15;3.13;;;1.10;;
15706;SDS011;7953;54.302;10.128;2023-08-08T14:17:42;4.37;;;1.27;;
15706;SDS011;7953;54.302;10.128;2023-08-08T14:20:10;7.17;;;1.73;;
15706;SDS011;7953;54.302;10.128;2023-08-08T14:22:37;8.40;;;1.47;;
15706;SDS011;7953;54.302;10.128;2023-08-08T14:25:04;5.90;;;1.30;;
15706;SDS011;7953;54.302;10.128;2023-08-08T14:27:32;5.00;;;1.67;;
15706;SDS011;7953;54.302;10.128;2023-08-08T14:30:01;2.47;;;1.30;;
15706;SDS011;7953;54.302;10.128;2023-08-08T14:32:29;5.23;;;1.40;;
15706;SDS011;7953;54.302;10.128;2023-08-08T14:34:56;7.03;;;1.93;;
15706;SDS011;7953;54.302;10.128;2023-08-08T14:37:23;2.83;;;1.10;;
15706;SDS011;7953;54.302;10.128;2023-08-08T14:39:50;5.20;;;1.73;;
15706;SDS011;7953;54.302;10.128;2023-08-08T14:42:17;4.43;;;1.23;;
15706;SDS011;7953;54.302;10.128;2023-08-08T14:44:45;6.40;;;1.33;;
15706;SDS011;7953;54.302;10.128;2023-08-08T14:47:13;11.50;;;1.97;;
15706;SDS011;7953;54.302;10.128;2023-08-08T14:49:40;5.83;;;1.57;;